sensor_id;sensor_type;location;lat;lon;timestamp;P1;durP1;ratioP1;P2;durP2;ratioP2
36351;SDS011;22382;44.768;17.206;2024-03-08T00:00:10;11.13;;;7.35;;
36351;SDS011;22382;44.768;17.206;2024-03-08T00:02:41;11.88;;;7.45;;
36351;SDS011;22382;44.768;17.206;2024-03-08T00:05:09;10.35;;;7.65;;
36351;SDS011;22382;44.768;17.206;2024-03-08T00:07:37;10.57;;;7.05;;
36351;SDS011;22382;44.768;17.206;2024-03-08T00:10:06;12.23;;;7.43;;
36351;SDS011;22382;44.768;17.206;2024-03-08T00:12:40;12.65;;;7.65;;
36351;SDS011;22382;44.768;17.206;2024-03-08T00:15:12;12.02;;;7.35;;
36351;SDS011;22382;44.768;17.206;2024-03-08T00:17:45;12.60;;;7.88;;
36351;SDS011;22382;44.768;17.206;2024-03-08T00:20:14;12.05;;;8.05;;
36351;SDS011;22382;44.768;17.206;2024-03-08T00:22:45;17.75;;;10.45;;
36351;SDS011;22382;44.768;17.206;2024-03-08T00:25:13;13.27;;;9.10;;
36351;SDS011;22382;44.768;17.206;2024-03-08T00:27:41;16.15;;;10.40;;
36351;SDS011;22382;44.768;17.206;2024-03-08T00:30:08;14.65;;;9.27;;
36351;SDS011;22382;44.768;17.206;2024-03-08T00:32:37;12.10;;;7.68;;
36351;SDS011;22382;44.768;17.206;2024-03-08T00:35:05;11.15;;;6.88;;
36351;SDS011;22382;44.768;17.206;2024-03-08T00:37:35;12.50;;;6.57;;
36351;SDS011;22382;44.768;17.206;2024-03-08T00:40:03;9.55;;;6.65;;
36351;SDS011;22382;44.768;17.206;2024-03-08T00:42:31;10.23;;;5.80;;
36351;SDS011;22382;44.768;17.206;2024-03-08T00:45:00;8.98;;;5.90;;
36351;SDS011;22382;44.768;17.206;2024-03-08T00:47:28;8.77;;;6.20;;
36351;SDS011;22382;44.768;17.206;2024-03-08T00:49:55;9.82;;;6.50;;
36351;SDS011;22382;44.768;17.206;2024-03-08T00:52:23;10.07;;;5.60;;
36351;SDS011;22382;44.768;17.206;2024-03-08T00:54:50;9.07;;;6.13;;
36351;SDS011;22382;44.768;17.206;2024-03-08T00:57:18;8.07;;;5.68;;
36351;SDS011;22382;44.768;17.206;2024-03-08T00:59:45;8.70;;;5.78;;
36351;SDS011;22382;44.768;17.206;2024-03-08T01:02:13;11.55;;;6.93;;
36351;SDS011;22382;44.768;17.206;2024-03-08T01:04:41;10.38;;;6.57;;
36351;SDS011;22382;44.768;17.206;2024-03-08T01:07:08;8.40;;;6.03;;
36351;SDS011;22382;44.768;17.206;2024-03-08T01:09:35;10.10;;;6.68;;
36351;SDS011;22382;44.768;17.206;2024-03-08T01:12:02;10.77;;;6.57;;
36351;SDS011;22382;44.768;17.206;2024-03-08T01:14:30;9.30;;;6.38;;
36351;SDS011;22382;44.768;17.206;2024-03-08T01:16:57;9.48;;;6.85;;
36351;SDS011;22382;44.768;17.206;2024-03-08T01:19:26;11.23;;;7.32;;
36351;SDS011;22382;44.768;17.206;2024-03-08T01:21:53;9.00;;;6.68;;
36351;SDS011;22382;44.768;17.206;2024-03-08T01:24:23;11.27;;;8.20;;
36351;SDS011;22382;44.768;17.206;2024-03-08T01:26:51;12.63;;;8.27;;
36351;SDS011;22382;44.768;17.206;2024-03-08T01:29:19;12.73;;;8.45;;
36351;SDS011;22382;44.768;17.206;2024-03-08T01:31:46;16.15;;;10.60;;
36351;SDS011;22382;44.768;17.206;2024-03-08T01:34:13;18.80;;;12.65;;
36351;SDS011;22382;44.768;17.206;2024-03-08T01:36:40;21.73;;;14.20;;
36351;SDS011;22382;44.768;17.206;2024-03-08T01:39:07;26.42;;;15.23;;
36351;SDS011;22382;44.768;17.206;2024-03-08T01:41:36;24.63;;;14.95;;
36351;SDS011;22382;44.768;17.206;2024-03-08T01:44:03;22.52;;;14.98;;
36351;SDS011;22382;44.768;17.206;2024-03-08T01:46:33;22.85;;;14.00;;
36351;SDS011;22382;44.768;17.206;2024-03-08T01:49:02;19.42;;;13.60;;
36351;SDS011;22382;44.768;17.206;2024-03-08T01:51:30;21.33;;;12.20;;
36351;SDS011;22382;44.768;17.206;2024-03-08T01:53:57;17.65;;;11.52;;
36351;SDS011;22382;44.768;17.206;2024-03-08T01:56:28;18.02;;;11.50;;
36351;SDS011;22382;44.768;17.206;2024-03-08T01:58:58;17.67;;;12.05;;
36351;SDS011;22382;44.768;17.206;2024-03-08T02:01:27;21.60;;;14.30;;
36351;SDS011;22382;44.768;17.206;2024-03-08T02:03:55;21.02;;;13.77;;
36351;SDS011;22382;44.768;17.206;2024-03-08T02:06:22;22.67;;;14.82;;
36351;SDS011;22382;44.768;17.206;2024-03-08T02:08:50;20.85;;;14.52;;
36351;SDS011;22382;44.768;17.206;2024-03-08T02:11:18;22.67;;;14.98;;
36351;SDS011;22382;44.768;17.206;2024-03-08T02:13:47;22.40;;;14.68;;
36351;SDS011;22382;44.768;17.206;2024-03-08T02:16:20;23.83;;;14.55;;
36351;SDS011;22382;44.768;17.206;2024-03-08T02:18:49;22.80;;;13.70;;
36351;SDS011;22382;44.768;17.206;2024-03-08T02:21:17;23.80;;;15.73;;
36351;SDS011;22382;44.768;17.206;2024-03-08T02:23:45;22.48;;;15.40;;
36351;SDS011;22382;44.768;17.206;2024-03-08T02:26:12;23.25;;;15.02;;
36351;SDS011;22382;44.768;17.206;2024-03-08T02:28:39;21.00;;;14.43;;
36351;SDS011;22382;44.768;17.206;2024-03-08T02:31:09;23.80;;;15.52;;
36351;SDS011;22382;44.768;17.206;2024-03-08T02:33:37;26.05;;;16.27;;
36351;SDS011;22382;44.768;17.206;2024-03-08T02:36:04;24.50;;;16.85;;
36351;SDS011;22382;44.768;17.206;2024-03-08T02:38:33;23.92;;;16.27;;
36351;SDS011;22382;44.768;17.206;2024-03-08T02:41:00;24.58;;;16.77;;
36351;SDS011;22382;44.768;17.206;2024-03-08T02:43:27;25.48;;;16.30;;
36351;SDS011;22382;44.768;17.206;2024-03-08T02:45:54;24.73;;;16.48;;
36351;SDS011;22382;44.768;17.206;2024-03-08T02:48:22;26.80;;;17.05;;
36351;SDS011;22382;44.768;17.206;2024-03-08T02:50:49;26.63;;;17.58;;
36351;SDS011;22382;44.768;17.206;2024-03-08T02:53:20;26.15;;;16.83;;
36351;SDS011;22382;44.768;17.206;2024-03-08T02:55:49;27.00;;;17.75;;
36351;SDS011;22382;44.768;17.206;2024-03-08T02:58:16;29.63;;;17.77;;
36351;SDS011;22382;44.768;17.206;2024-03-08T03:00:43;25.80;;;17.10;;
36351;SDS011;22382;44.768;17.206;2024-03-08T03:03:11;28.48;;;17.80;;
36351;SDS011;22382;44.768;17.206;2024-03-08T03:05:39;24.20;;;16.15;;
36351;SDS011;22382;44.768;17.206;2024-03-08T03:08:14;26.02;;;15.50;;
36351;SDS011;22382;44.768;17.206;2024-03-08T03:10:44;26.92;;;16.92;;
36351;SDS011;22382;44.768;17.206;2024-03-08T03:13:12;28.50;;;17.10;;
36351;SDS011;22382;44.768;17.206;2024-03-08T03:15:41;28.13;;;17.40;;
36351;SDS011;22382;44.768;17.206;2024-03-08T03:18:11;26.90;;;16.58;;
36351;SDS011;22382;44.768;17.206;2024-03-08T03:20:38;28.23;;;16.33;;
36351;SDS011;22382;44.768;17.206;2024-03-08T03:23:10;23.77;;;15.32;;
36351;SDS011;22382;44.768;17.206;2024-03-08T03:25:42;26.05;;;14.75;;
36351;SDS011;22382;44.768;17.206;2024-03-08T03:28:09;23.17;;;14.95;;
36351;SDS011;22382;44.768;17.206;2024-03-08T03:30:41;25.48;;;16.35;;
36351;SDS011;22382;44.768;17.206;2024-03-08T03:33:08;25.38;;;15.60;;
36351;SDS011;22382;44.768;17.206;2024-03-08T03:35:36;23.52;;;15.63;;
36351;SDS011;22382;44.768;17.206;2024-03-08T03:38:04;24.40;;;15.95;;
36351;SDS011;22382;44.768;17.206;2024-03-08T03:40:35;22.45;;;15.02;;
36351;SDS011;22382;44.768;17.206;2024-03-08T03:43:03;22.98;;;15.50;;
36351;SDS011;22382;44.768;17.206;2024-03-08T03:45:31;23.80;;;15.82;;
36351;SDS011;22382;44.768;17.206;2024-03-08T03:48:08;19.65;;;12.15;;
36351;SDS011;22382;44.768;17.206;2024-03-08T03:50:39;26.30;;;15.98;;
36351;SDS011;22382;44.768;17.206;2024-03-08T03:53:07;25.10;;;15.00;;
36351;SDS011;22382;44.768;17.206;2024-03-08T03:55:36;23.85;;;15.20;;
36351;SDS011;22382;44.768;17.206;2024-03-08T03:58:07;23.27;;;14.02;;
36351;SDS011;22382;44.768;17.206;2024-03-08T04:00:37;23.08;;;14.43;;
36351;SDS011;22382;44.768;17.206;2024-03-08T04:03:05;19.23;;;13.05;;
36351;SDS011;22382;44.768;17.206;2024-03-08T04:05:33;15.82;;;11.18;;
36351;SDS011;22382;44.768;17.206;2024-03-08T04:08:01;17.35;;;10.02;;
36351;SDS011;22382;44.768;17.206;2024-03-08T04:10:29;11.75;;;8.70;;
36351;SDS011;22382;44.768;17.206;2024-03-08T04:12:57;13.23;;;7.78;;
36351;SDS011;22382;44.768;17.206;2024-03-08T04:15:24;11.40;;;8.07;;
36351;SDS011;22382;44.768;17.206;2024-03-08T04:17:51;14.80;;;7.75;;
36351;SDS011;22382;44.768;17.206;2024-03-08T04:20:19;12.13;;;7.93;;
36351;SDS011;22382;44.768;17.206;2024-03-08T04:22:48;10.30;;;7.47;;
36351;SDS011;22382;44.768;17.206;2024-03-08T04:25:16;11.63;;;8.27;;
36351;SDS011;22382;44.768;17.206;2024-03-08T04:27:44;12.35;;;8.15;;
36351;SDS011;22382;44.768;17.206;2024-03-08T04:30:13;14.82;;;8.75;;
36351;SDS011;22382;44.768;17.206;2024-03-08T04:32:40;12.40;;;8.38;;
36351;SDS011;22382;44.768;17.206;2024-03-08T04:35:09;11.60;;;8.15;;
36351;SDS011;22382;44.768;17.206;2024-03-08T04:37:39;12.15;;;8.15;;
36351;SDS011;22382;44.768;17.206;2024-03-08T04:40:06;11.02;;;7.45;;
36351;SDS011;22382;44.768;17.206;2024-03-08T04:42:34;12.20;;;8.25;;
36351;SDS011;22382;44.768;17.206;2024-03-08T04:45:03;12.80;;;7.85;;
36351;SDS011;22382;44.768;17.206;2024-03-08T04:47:31;14.80;;;8.98;;
36351;SDS011;22382;44.768;17.206;2024-03-08T04:49:58;14.43;;;10.20;;
36351;SDS011;22382;44.768;17.206;2024-03-08T04:52:26;17.85;;;12.20;;
36351;SDS011;22382;44.768;17.206;2024-03-08T04:54:54;21.40;;;14.20;;
36351;SDS011;22382;44.768;17.206;2024-03-08T04:57:22;20.63;;;13.98;;
36351;SDS011;22382;44.768;17.206;2024-03-08T04:59:49;19.10;;;13.88;;
36351;SDS011;22382;44.768;17.206;2024-03-08T05:02:16;20.88;;;13.98;;
36351;SDS011;22382;44.768;17.206;2024-03-08T05:04:44;20.05;;;13.38;;
36351;SDS011;22382;44.768;17.206;2024-03-08T05:07:11;20.50;;;13.88;;
36351;SDS011;22382;44.768;17.206;2024-03-08T05:09:38;20.35;;;13.57;;
36351;SDS011;22382;44.768;17.206;2024-03-08T05:12:07;21.20;;;13.65;;
36351;SDS011;22382;44.768;17.206;2024-03-08T05:14:34;20.55;;;12.93;;
36351;SDS011;22382;44.768;17.206;2024-03-08T05:17:02;22.27;;;14.80;;
36351;SDS011;22382;44.768;17.206;2024-03-08T05:19:29;21.95;;;14.18;;
36351;SDS011;22382;44.768;17.206;2024-03-08T05:22:00;21.67;;;13.98;;
36351;SDS011;22382;44.768;17.206;2024-03-08T05:24:28;21.42;;;14.00;;
36351;SDS011;22382;44.768;17.206;2024-03-08T05:26:57;18.77;;;13.75;;
36351;SDS011;22382;44.768;17.206;2024-03-08T05:29:27;25.67;;;14.82;;
36351;SDS011;22382;44.768;17.206;2024-03-08T05:31:55;20.10;;;13.32;;
36351;SDS011;22382;44.768;17.206;2024-03-08T05:34:24;19.38;;;13.05;;
36351;SDS011;22382;44.768;17.206;2024-03-08T05:36:52;18.40;;;12.90;;
36351;SDS011;22382;44.768;17.206;2024-03-08T05:39:21;19.10;;;13.35;;
36351;SDS011;22382;44.768;17.206;2024-03-08T05:41:50;20.23;;;14.55;;
36351;SDS011;22382;44.768;17.206;2024-03-08T05:44:17;21.45;;;14.55;;
36351;SDS011;22382;44.768;17.206;2024-03-08T05:46:44;21.55;;;14.68;;
36351;SDS011;22382;44.768;17.206;2024-03-08T05:49:15;21.10;;;13.77;;
36351;SDS011;22382;44.768;17.206;2024-03-08T05:51:42;21.75;;;14.48;;
36351;SDS011;22382;44.768;17.206;2024-03-08T05:54:10;21.33;;;13.35;;
36351;SDS011;22382;44.768;17.206;2024-03-08T05:56:42;19.02;;;12.55;;
36351;SDS011;22382;44.768;17.206;2024-03-08T05:59:12;17.17;;;11.63;;
36351;SDS011;22382;44.768;17.206;2024-03-08T06:01:40;17.40;;;11.90;;
36351;SDS011;22382;44.768;17.206;2024-03-08T06:04:09;20.30;;;12.65;;
36351;SDS011;22382;44.768;17.206;2024-03-08T06:06:38;19.17;;;13.18;;
36351;SDS011;22382;44.768;17.206;2024-03-08T06:09:07;19.83;;;13.30;;
36351;SDS011;22382;44.768;17.206;2024-03-08T06:11:44;20.83;;;13.45;;
36351;SDS011;22382;44.768;17.206;2024-03-08T06:14:12;19.73;;;13.32;;
36351;SDS011;22382;44.768;17.206;2024-03-08T06:16:39;22.15;;;15.13;;
36351;SDS011;22382;44.768;17.206;2024-03-08T06:19:06;25.33;;;16.00;;
36351;SDS011;22382;44.768;17.206;2024-03-08T06:21:34;20.27;;;12.82;;
36351;SDS011;22382;44.768;17.206;2024-03-08T06:24:01;19.10;;;12.25;;
36351;SDS011;22382;44.768;17.206;2024-03-08T06:26:29;18.73;;;12.38;;
36351;SDS011;22382;44.768;17.206;2024-03-08T06:28:58;18.45;;;11.25;;
36351;SDS011;22382;44.768;17.206;2024-03-08T06:31:25;19.92;;;12.75;;
36351;SDS011;22382;44.768;17.206;2024-03-08T06:33:52;18.17;;;12.18;;
36351;SDS011;22382;44.768;17.206;2024-03-08T06:36:24;20.35;;;12.98;;
36351;SDS011;22382;44.768;17.206;2024-03-08T06:38:51;19.77;;;12.57;;
36351;SDS011;22382;44.768;17.206;2024-03-08T06:41:19;17.15;;;12.70;;
36351;SDS011;22382;44.768;17.206;2024-03-08T06:43:47;22.65;;;14.30;;
36351;SDS011;22382;44.768;17.206;2024-03-08T06:46:18;20.52;;;13.43;;
36351;SDS011;22382;44.768;17.206;2024-03-08T06:48:47;23.83;;;14.73;;
36351;SDS011;22382;44.768;17.206;2024-03-08T06:51:16;23.33;;;13.68;;
36351;SDS011;22382;44.768;17.206;2024-03-08T06:53:44;19.75;;;11.57;;
36351;SDS011;22382;44.768;17.206;2024-03-08T06:56:12;18.30;;;11.60;;
36351;SDS011;22382;44.768;17.206;2024-03-08T06:58:39;20.30;;;11.98;;
36351;SDS011;22382;44.768;17.206;2024-03-08T07:01:07;18.55;;;12.40;;
36351;SDS011;22382;44.768;17.206;2024-03-08T07:03:44;20.38;;;12.32;;
36351;SDS011;22382;44.768;17.206;2024-03-08T07:06:11;20.38;;;13.00;;
36351;SDS011;22382;44.768;17.206;2024-03-08T07:08:39;19.65;;;12.27;;
36351;SDS011;22382;44.768;17.206;2024-03-08T07:11:06;21.15;;;12.77;;
36351;SDS011;22382;44.768;17.206;2024-03-08T07:13:34;27.77;;;16.70;;
36351;SDS011;22382;44.768;17.206;2024-03-08T07:16:01;32.75;;;18.20;;
36351;SDS011;22382;44.768;17.206;2024-03-08T07:18:28;22.75;;;14.40;;
36351;SDS011;22382;44.768;17.206;2024-03-08T07:20:57;19.77;;;12.60;;
36351;SDS011;22382;44.768;17.206;2024-03-08T07:23:25;19.45;;;12.30;;
36351;SDS011;22382;44.768;17.206;2024-03-08T07:26:24;19.30;;;12.30;;
36351;SDS011;22382;44.768;17.206;2024-03-08T07:28:51;20.15;;;12.82;;
36351;SDS011;22382;44.768;17.206;2024-03-08T07:31:21;21.58;;;14.95;;
36351;SDS011;22382;44.768;17.206;2024-03-08T07:33:58;25.42;;;14.80;;
36351;SDS011;22382;44.768;17.206;2024-03-08T07:36:25;29.08;;;16.23;;
36351;SDS011;22382;44.768;17.206;2024-03-08T07:38:52;28.92;;;17.75;;
36351;SDS011;22382;44.768;17.206;2024-03-08T07:41:20;28.35;;;15.90;;
36351;SDS011;22382;44.768;17.206;2024-03-08T07:43:47;28.38;;;16.13;;
36351;SDS011;22382;44.768;17.206;2024-03-08T07:46:15;27.55;;;15.35;;
36351;SDS011;22382;44.768;17.206;2024-03-08T07:48:45;30.38;;;16.88;;
36351;SDS011;22382;44.768;17.206;2024-03-08T07:51:15;26.27;;;15.07;;
36351;SDS011;22382;44.768;17.206;2024-03-08T07:53:44;29.10;;;16.45;;
36351;SDS011;22382;44.768;17.206;2024-03-08T07:56:11;34.72;;;17.05;;
36351;SDS011;22382;44.768;17.206;2024-03-08T07:58:40;33.47;;;18.20;;
36351;SDS011;22382;44.768;17.206;2024-03-08T08:01:07;29.30;;;16.45;;
36351;SDS011;22382;44.768;17.206;2024-03-08T08:03:35;27.88;;;15.52;;
36351;SDS011;22382;44.768;17.206;2024-03-08T08:06:04;33.67;;;17.85;;
36351;SDS011;22382;44.768;17.206;2024-03-08T08:08:31;30.83;;;17.63;;
36351;SDS011;22382;44.768;17.206;2024-03-08T08:10:58;32.42;;;18.08;;
36351;SDS011;22382;44.768;17.206;2024-03-08T08:13:26;31.13;;;17.50;;
36351;SDS011;22382;44.768;17.206;2024-03-08T08:15:54;31.02;;;16.92;;
36351;SDS011;22382;44.768;17.206;2024-03-08T08:18:23;32.00;;;18.02;;
36351;SDS011;22382;44.768;17.206;2024-03-08T08:20:51;32.17;;;17.63;;
36351;SDS011;22382;44.768;17.206;2024-03-08T08:23:19;31.17;;;18.27;;
36351;SDS011;22382;44.768;17.206;2024-03-08T08:25:46;30.08;;;17.67;;
36351;SDS011;22382;44.768;17.206;2024-03-08T08:28:16;26.60;;;16.05;;
36351;SDS011;22382;44.768;17.206;2024-03-08T08:30:45;32.33;;;16.02;;
36351;SDS011;22382;44.768;17.206;2024-03-08T08:33:12;29.65;;;15.88;;
36351;SDS011;22382;44.768;17.206;2024-03-08T08:35:40;27.75;;;16.27;;
36351;SDS011;22382;44.768;17.206;2024-03-08T08:38:07;26.17;;;15.52;;
36351;SDS011;22382;44.768;17.206;2024-03-08T08:40:35;32.25;;;17.25;;
36351;SDS011;22382;44.768;17.206;2024-03-08T08:43:03;27.63;;;16.92;;
36351;SDS011;22382;44.768;17.206;2024-03-08T08:45:31;29.77;;;16.27;;
36351;SDS011;22382;44.768;17.206;2024-03-08T08:47:59;26.48;;;15.80;;
36351;SDS011;22382;44.768;17.206;2024-03-08T08:50:27;28.45;;;16.75;;
36351;SDS011;22382;44.768;17.206;2024-03-08T08:52:55;28.13;;;14.82;;
36351;SDS011;22382;44.768;17.206;2024-03-08T08:55:22;31.73;;;16.77;;
36351;SDS011;22382;44.768;17.206;2024-03-08T08:57:53;30.92;;;17.80;;
36351;SDS011;22382;44.768;17.206;2024-03-08T09:00:21;26.60;;;16.15;;
36351;SDS011;22382;44.768;17.206;2024-03-08T09:02:54;25.90;;;15.40;;
36351;SDS011;22382;44.768;17.206;2024-03-08T09:05:24;23.90;;;14.93;;
36351;SDS011;22382;44.768;17.206;2024-03-08T09:07:52;23.75;;;15.00;;
36351;SDS011;22382;44.768;17.206;2024-03-08T09:10:20;23.00;;;13.98;;
36351;SDS011;22382;44.768;17.206;2024-03-08T09:12:48;26.23;;;15.15;;
36351;SDS011;22382;44.768;17.206;2024-03-08T09:15:15;23.40;;;14.52;;
36351;SDS011;22382;44.768;17.206;2024-03-08T09:17:47;21.80;;;13.13;;
36351;SDS011;22382;44.768;17.206;2024-03-08T09:20:15;19.20;;;11.90;;
36351;SDS011;22382;44.768;17.206;2024-03-08T09:22:44;17.15;;;11.00;;
36351;SDS011;22382;44.768;17.206;2024-03-08T09:25:12;17.35;;;11.32;;
36351;SDS011;22382;44.768;17.206;2024-03-08T09:27:40;21.58;;;12.05;;
36351;SDS011;22382;44.768;17.206;2024-03-08T09:30:08;21.17;;;12.18;;
36351;SDS011;22382;44.768;17.206;2024-03-08T09:32:36;20.33;;;11.88;;
36351;SDS011;22382;44.768;17.206;2024-03-08T09:35:05;21.35;;;12.70;;
36351;SDS011;22382;44.768;17.206;2024-03-08T09:37:35;20.70;;;12.52;;
36351;SDS011;22382;44.768;17.206;2024-03-08T09:40:04;20.80;;;13.13;;
36351;SDS011;22382;44.768;17.206;2024-03-08T09:42:37;29.98;;;14.48;;
36351;SDS011;22382;44.768;17.206;2024-03-08T09:45:05;20.58;;;13.30;;
36351;SDS011;22382;44.768;17.206;2024-03-08T09:47:43;20.25;;;12.38;;
36351;SDS011;22382;44.768;17.206;2024-03-08T09:50:11;21.50;;;12.65;;
36351;SDS011;22382;44.768;17.206;2024-03-08T09:52:42;20.13;;;12.40;;
36351;SDS011;22382;44.768;17.206;2024-03-08T09:55:13;22.98;;;11.60;;
36351;SDS011;22382;44.768;17.206;2024-03-08T09:57:44;21.60;;;12.95;;
36351;SDS011;22382;44.768;17.206;2024-03-08T10:00:31;22.52;;;13.43;;
36351;SDS011;22382;44.768;17.206;2024-03-08T10:03:02;25.60;;;12.82;;
36351;SDS011;22382;44.768;17.206;2024-03-08T10:05:32;19.45;;;12.25;;
36351;SDS011;22382;44.768;17.206;2024-03-08T10:08:00;22.23;;;12.63;;
36351;SDS011;22382;44.768;17.206;2024-03-08T10:10:27;24.40;;;13.02;;
36351;SDS011;22382;44.768;17.206;2024-03-08T10:12:55;22.60;;;13.27;;
36351;SDS011;22382;44.768;17.206;2024-03-08T10:15:23;25.08;;;14.10;;
36351;SDS011;22382;44.768;17.206;2024-03-08T10:17:50;21.42;;;13.50;;
36351;SDS011;22382;44.768;17.206;2024-03-08T10:20:19;33.67;;;19.83;;
36351;SDS011;22382;44.768;17.206;2024-03-08T10:22:47;31.63;;;16.02;;
36351;SDS011;22382;44.768;17.206;2024-03-08T10:25:32;27.48;;;14.38;;
36351;SDS011;22382;44.768;17.206;2024-03-08T10:28:02;21.40;;;13.82;;
36351;SDS011;22382;44.768;17.206;2024-03-08T10:30:33;22.88;;;14.30;;
36351;SDS011;22382;44.768;17.206;2024-03-08T10:33:01;26.27;;;14.43;;
36351;SDS011;22382;44.768;17.206;2024-03-08T10:35:32;26.13;;;14.77;;
36351;SDS011;22382;44.768;17.206;2024-03-08T10:38:00;24.77;;;14.95;;
36351;SDS011;22382;44.768;17.206;2024-03-08T10:40:32;25.38;;;14.65;;
36351;SDS011;22382;44.768;17.206;2024-03-08T10:42:59;24.90;;;14.45;;
36351;SDS011;22382;44.768;17.206;2024-03-08T10:45:37;19.15;;;12.80;;
36351;SDS011;22382;44.768;17.206;2024-03-08T10:50:51;24.02;;;13.20;;
36351;SDS011;22382;44.768;17.206;2024-03-08T10:53:20;23.40;;;14.80;;
36351;SDS011;22382;44.768;17.206;2024-03-08T10:55:50;24.33;;;14.82;;
36351;SDS011;22382;44.768;17.206;2024-03-08T10:58:21;25.08;;;15.13;;
36351;SDS011;22382;44.768;17.206;2024-03-08T11:06:29;19.30;;;13.38;;
36351;SDS011;22382;44.768;17.206;2024-03-08T11:14:48;24.55;;;14.45;;
36351;SDS011;22382;44.768;17.206;2024-03-08T11:19:59;15.57;;;10.88;;
36351;SDS011;22382;44.768;17.206;2024-03-08T11:22:32;16.98;;;10.65;;
36351;SDS011;22382;44.768;17.206;2024-03-08T11:25:04;15.07;;;9.75;;
36351;SDS011;22382;44.768;17.206;2024-03-08T11:27:39;17.20;;;11.15;;
36351;SDS011;22382;44.768;17.206;2024-03-08T11:30:19;14.60;;;9.98;;
36351;SDS011;22382;44.768;17.206;2024-03-08T11:32:50;13.75;;;9.63;;
36351;SDS011;22382;44.768;17.206;2024-03-08T11:35:22;13.18;;;9.32;;
36351;SDS011;22382;44.768;17.206;2024-03-08T11:37:50;15.75;;;10.38;;
36351;SDS011;22382;44.768;17.206;2024-03-08T11:40:17;20.70;;;10.80;;
36351;SDS011;22382;44.768;17.206;2024-03-08T11:42:47;17.83;;;11.00;;
36351;SDS011;22382;44.768;17.206;2024-03-08T11:45:15;16.10;;;10.23;;
36351;SDS011;22382;44.768;17.206;2024-03-08T11:47:44;19.15;;;11.48;;
36351;SDS011;22382;44.768;17.206;2024-03-08T11:50:17;21.35;;;11.60;;
36351;SDS011;22382;44.768;17.206;2024-03-08T11:52:47;15.32;;;10.30;;
36351;SDS011;22382;44.768;17.206;2024-03-08T11:55:15;17.67;;;10.65;;
36351;SDS011;22382;44.768;17.206;2024-03-08T11:57:47;16.95;;;11.15;;
36351;SDS011;22382;44.768;17.206;2024-03-08T12:00:15;18.98;;;12.82;;
36351;SDS011;22382;44.768;17.206;2024-03-08T12:03:06;19.27;;;12.40;;
36351;SDS011;22382;44.768;17.206;2024-03-08T12:05:36;18.67;;;12.98;;
36351;SDS011;22382;44.768;17.206;2024-03-08T12:08:04;19.52;;;12.57;;
36351;SDS011;22382;44.768;17.206;2024-03-08T12:10:40;18.52;;;11.60;;
36351;SDS011;22382;44.768;17.206;2024-03-08T12:13:07;15.80;;;10.50;;
36351;SDS011;22382;44.768;17.206;2024-03-08T12:15:40;13.55;;;9.68;;
36351;SDS011;22382;44.768;17.206;2024-03-08T12:18:07;16.52;;;10.57;;
36351;SDS011;22382;44.768;17.206;2024-03-08T12:20:37;20.65;;;11.98;;
36351;SDS011;22382;44.768;17.206;2024-03-08T12:23:05;15.88;;;10.20;;
36351;SDS011;22382;44.768;17.206;2024-03-08T12:25:40;15.95;;;10.60;;
36351;SDS011;22382;44.768;17.206;2024-03-08T12:28:10;16.63;;;11.23;;
36351;SDS011;22382;44.768;17.206;2024-03-08T12:30:49;16.98;;;10.70;;
36351;SDS011;22382;44.768;17.206;2024-03-08T12:33:22;16.98;;;10.75;;
36351;SDS011;22382;44.768;17.206;2024-03-08T12:35:53;18.52;;;12.18;;
36351;SDS011;22382;44.768;17.206;2024-03-08T12:38:22;18.85;;;12.32;;
36351;SDS011;22382;44.768;17.206;2024-03-08T12:40:59;18.23;;;11.98;;
36351;SDS011;22382;44.768;17.206;2024-03-08T12:43:28;16.40;;;10.80;;
36351;SDS011;22382;44.768;17.206;2024-03-08T12:46:00;15.48;;;10.32;;
36351;SDS011;22382;44.768;17.206;2024-03-08T12:48:27;17.02;;;10.50;;
36351;SDS011;22382;44.768;17.206;2024-03-08T12:50:54;17.52;;;11.32;;
36351;SDS011;22382;44.768;17.206;2024-03-08T12:53:22;19.63;;;11.60;;
36351;SDS011;22382;44.768;17.206;2024-03-08T12:55:50;22.35;;;13.38;;
36351;SDS011;22382;44.768;17.206;2024-03-08T12:58:17;27.38;;;16.80;;
36351;SDS011;22382;44.768;17.206;2024-03-08T13:00:46;34.15;;;18.95;;
36351;SDS011;22382;44.768;17.206;2024-03-08T13:03:19;15.02;;;10.40;;
36351;SDS011;22382;44.768;17.206;2024-03-08T13:05:47;17.08;;;11.30;;
36351;SDS011;22382;44.768;17.206;2024-03-08T13:08:15;15.07;;;10.20;;
36351;SDS011;22382;44.768;17.206;2024-03-08T13:10:44;13.63;;;10.05;;
36351;SDS011;22382;44.768;17.206;2024-03-08T13:13:12;15.15;;;10.45;;
36351;SDS011;22382;44.768;17.206;2024-03-08T13:15:43;18.10;;;11.45;;
36351;SDS011;22382;44.768;17.206;2024-03-08T13:18:10;15.93;;;11.35;;
36351;SDS011;22382;44.768;17.206;2024-03-08T13:20:38;15.32;;;10.93;;
36351;SDS011;22382;44.768;17.206;2024-03-08T13:23:13;17.05;;;11.75;;
36351;SDS011;22382;44.768;17.206;2024-03-08T13:25:40;17.48;;;12.07;;
36351;SDS011;22382;44.768;17.206;2024-03-08T13:28:08;18.73;;;12.95;;
36351;SDS011;22382;44.768;17.206;2024-03-08T13:30:35;19.83;;;13.38;;
36351;SDS011;22382;44.768;17.206;2024-03-08T13:33:03;24.05;;;15.32;;
36351;SDS011;22382;44.768;17.206;2024-03-08T13:35:31;18.15;;;11.43;;
36351;SDS011;22382;44.768;17.206;2024-03-08T13:38:00;15.70;;;10.75;;
36351;SDS011;22382;44.768;17.206;2024-03-08T13:40:32;16.27;;;10.65;;
36351;SDS011;22382;44.768;17.206;2024-03-08T13:42:59;15.68;;;10.57;;
36351;SDS011;22382;44.768;17.206;2024-03-08T13:45:27;15.23;;;10.27;;
36351;SDS011;22382;44.768;17.206;2024-03-08T13:47:55;18.35;;;11.55;;
36351;SDS011;22382;44.768;17.206;2024-03-08T13:50:23;18.15;;;11.70;;
36351;SDS011;22382;44.768;17.206;2024-03-08T13:52:50;15.80;;;10.95;;
36351;SDS011;22382;44.768;17.206;2024-03-08T13:55:23;16.38;;;10.52;;
36351;SDS011;22382;44.768;17.206;2024-03-08T13:57:54;16.38;;;10.75;;
36351;SDS011;22382;44.768;17.206;2024-03-08T14:00:24;16.60;;;11.30;;
36351;SDS011;22382;44.768;17.206;2024-03-08T14:02:54;15.27;;;10.32;;
36351;SDS011;22382;44.768;17.206;2024-03-08T14:05:21;16.63;;;10.30;;
36351;SDS011;22382;44.768;17.206;2024-03-08T14:07:49;17.02;;;11.23;;
36351;SDS011;22382;44.768;17.206;2024-03-08T14:10:17;15.57;;;10.57;;
36351;SDS011;22382;44.768;17.206;2024-03-08T14:12:47;15.80;;;10.77;;
36351;SDS011;22382;44.768;17.206;2024-03-08T14:15:17;13.35;;;9.07;;
36351;SDS011;22382;44.768;17.206;2024-03-08T14:17:44;15.88;;;10.48;;
36351;SDS011;22382;44.768;17.206;2024-03-08T14:20:18;14.75;;;9.60;;
36351;SDS011;22382;44.768;17.206;2024-03-08T14:22:45;16.33;;;9.75;;
36351;SDS011;22382;44.768;17.206;2024-03-08T14:25:13;15.73;;;9.93;;
36351;SDS011;22382;44.768;17.206;2024-03-08T14:27:44;17.90;;;11.73;;
36351;SDS011;22382;44.768;17.206;2024-03-08T14:30:13;15.93;;;9.70;;
36351;SDS011;22382;44.768;17.206;2024-03-08T14:32:44;16.48;;;9.95;;
36351;SDS011;22382;44.768;17.206;2024-03-08T14:35:14;14.95;;;9.02;;
36351;SDS011;22382;44.768;17.206;2024-03-08T14:37:41;14.02;;;8.93;;